sensor_id;sensor_type;location;lat;lon;timestamp;temperature;humidity
17385;DHT22;8810;48.680;8.894;2022-11-20T00:01:17;3.80;99.90
17385;DHT22;8810;48.680;8.894;2022-11-20T00:03:45;3.80;99.90
17385;DHT22;8810;48.680;8.894;2022-11-20T00:06:13;3.80;99.90
17385;DHT22;8810;48.680;8.894;2022-11-20T00:08:41;3.70;99.90
17385;DHT22;8810;48.680;8.894;2022-11-20T00:11:10;3.70;99.90
17385;DHT22;8810;48.680;8.894;2022-11-20T00:13:39;3.70;99.90
17385;DHT22;8810;48.680;8.894;2022-11-20T00:16:08;3.60;99.90
17385;DHT22;8810;48.680;8.894;2022-11-20T00:18:36;3.50;99.90
17385;DHT22;8810;48.680;8.894;2022-11-20T00:21:03;3.50;99.90
17385;DHT22;8810;48.680;8.894;2022-11-20T00:23:30;3.50;99.90
17385;DHT22;8810;48.680;8.894;2022-11-20T00:26:01;3.50;99.90
17385;DHT22;8810;48.680;8.894;2022-11-20T00:28:29;3.50;99.90
17385;DHT22;8810;48.680;8.894;2022-11-20T00:31:02;3.50;99.90
17385;DHT22;8810;48.680;8.894;2022-11-20T00:33:30;3.40;99.90
17385;DHT22;8810;48.680;8.894;2022-11-20T00:35:59;3.40;99.90
17385;DHT22;8810;48.680;8.894;2022-11-20T00:38:27;3.30;99.90
17385;DHT22;8810;48.680;8.894;2022-11-20T00:40:56;3.30;99.90
17385;DHT22;8810;48.680;8.894;2022-11-20T00:43:23;3.30;99.90
17385;DHT22;8810;48.680;8.894;2022-11-20T00:45:49;3.20;99.90
17385;DHT22;8810;48.680;8.894;2022-11-20T00:48:18;3.30;99.90
17385;DHT22;8810;48.680;8.894;2022-11-20T00:50:44;3.20;99.90
17385;DHT22;8810;48.680;8.894;2022-11-20T00:53:11;3.20;99.90
17385;DHT22;8810;48.680;8.894;2022-11-20T00:55:38;3.10;99.90
17385;DHT22;8810;48.680;8.894;2022-11-20T00:58:05;3.10;99.90
17385;DHT22;8810;48.680;8.894;2022-11-20T01:00:32;3.10;99.90
17385;DHT22;8810;48.680;8.894;2022-11-20T01:02:58;3.10;99.90
17385;DHT22;8810;48.680;8.894;2022-11-20T01:05:27;3.10;99.90
17385;DHT22;8810;48.680;8.894;2022-11-20T01:07:53;3.00;99.90
17385;DHT22;8810;48.680;8.894;2022-11-20T01:10:20;3.00;99.90
17385;DHT22;8810;48.680;8.894;2022-11-20T01:12:47;2.90;99.90
17385;DHT22;8810;48.680;8.894;2022-11-20T01:15:34;2.90;99.90
17385;DHT22;8810;48.680;8.894;2022-11-20T01:18:02;2.80;99.90
17385;DHT22;8810;48.680;8.894;2022-11-20T01:20:30;2.80;99.90
17385;DHT22;8810;48.680;8.894;2022-11-20T01:23:00;2.80;99.90
17385;DHT22;8810;48.680;8.894;2022-11-20T01:25:27;2.70;99.90
17385;DHT22;8810;48.680;8.894;2022-11-20T01:27:53;2.60;99.90
17385;DHT22;8810;48.680;8.894;2022-11-20T01:30:20;2.50;99.90
17385;DHT22;8810;48.680;8.894;2022-11-20T01:32:47;2.60;99.90
17385;DHT22;8810;48.680;8.894;2022-11-20T01:35:14;2.50;99.90
17385;DHT22;8810;48.680;8.894;2022-11-20T01:37:42;2.50;99.90
17385;DHT22;8810;48.680;8.894;2022-11-20T01:40:10;2.50;99.90
17385;DHT22;8810;48.680;8.894;2022-11-20T01:42:37;2.50;99.90
17385;DHT22;8810;48.680;8.894;2022-11-20T01:48:28;2.40;99.90
17385;DHT22;8810;48.680;8.894;2022-11-20T01:50:57;2.40;99.90
17385;DHT22;8810;48.680;8.894;2022-11-20T01:53:29;2.40;99.90
17385;DHT22;8810;48.680;8.894;2022-11-20T01:56:00;2.40;99.90
17385;DHT22;8810;48.680;8.894;2022-11-20T01:58:31;2.30;99.90
17385;DHT22;8810;48.680;8.894;2022-11-20T02:00:59;2.30;99.90
17385;DHT22;8810;48.680;8.894;2022-11-20T02:03:26;2.30;99.90
17385;DHT22;8810;48.680;8.894;2022-11-20T02:05:57;2.30;99.90
17385;DHT22;8810;48.680;8.894;2022-11-20T02:08:29;2.30;99.90
17385;DHT22;8810;48.680;8.894;2022-11-20T02:10:56;2.30;99.90
17385;DHT22;8810;48.680;8.894;2022-11-20T02:13:23;2.30;99.90
17385;DHT22;8810;48.680;8.894;2022-11-20T02:16:10;2.30;99.90
17385;DHT22;8810;48.680;8.894;2022-11-20T02:18:38;2.30;99.90
17385;DHT22;8810;48.680;8.894;2022-11-20T02:21:08;2.30;99.90
17385;DHT22;8810;48.680;8.894;2022-11-20T02:23:39;2.30;99.90
17385;DHT22;8810;48.680;8.894;2022-11-20T02:26:13;2.30;99.90
17385;DHT22;8810;48.680;8.894;2022-11-20T02:28:40;2.30;99.90
17385;DHT22;8810;48.680;8.894;2022-11-20T02:31:07;2.30;99.90
17385;DHT22;8810;48.680;8.894;2022-11-20T02:33:34;2.30;99.90
17385;DHT22;8810;48.680;8.894;2022-11-20T02:36:01;2.30;99.90
17385;DHT22;8810;48.680;8.894;2022-11-20T02:38:28;2.30;99.90
17385;DHT22;8810;48.680;8.894;2022-11-20T02:40:55;2.50;99.90
17385;DHT22;8810;48.680;8.894;2022-11-20T02:43:23;2.70;99.90
17385;DHT22;8810;48.680;8.894;2022-11-20T02:45:50;2.80;99.90
17385;DHT22;8810;48.680;8.894;2022-11-20T02:48:17;3.00;99.90
17385;DHT22;8810;48.680;8.894;2022-11-20T02:50:43;3.10;99.90
17385;DHT22;8810;48.680;8.894;2022-11-20T02:53:10;3.10;99.90
17385;DHT22;8810;48.680;8.894;2022-11-20T02:55:37;3.20;99.90
17385;DHT22;8810;48.680;8.894;2022-11-20T02:58:04;3.20;99.90
17385;DHT22;8810;48.680;8.894;2022-11-20T03:00:32;3.10;99.90
17385;DHT22;8810;48.680;8.894;2022-11-20T03:02:59;3.10;99.90
17385;DHT22;8810;48.680;8.894;2022-11-20T03:05:26;3.10;99.90
17385;DHT22;8810;48.680;8.894;2022-11-20T03:07:52;3.10;99.90
17385;DHT22;8810;48.680;8.894;2022-11-20T03:10:19;3.10;99.90
17385;DHT22;8810;48.680;8.894;2022-11-20T03:12:46;3.10;99.90
17385;DHT22;8810;48.680;8.894;2022-11-20T03:15:13;3.00;99.90
17385;DHT22;8810;48.680;8.894;2022-11-20T03:17:41;3.00;99.90
17385;DHT22;8810;48.680;8.894;2022-11-20T03:20:09;3.00;99.90
17385;DHT22;8810;48.680;8.894;2022-11-20T03:22:36;3.00;99.90
17385;DHT22;8810;48.680;8.894;2022-11-20T03:25:03;2.90;99.90
17385;DHT22;8810;48.680;8.894;2022-11-20T03:27:32;2.90;99.90
17385;DHT22;8810;48.680;8.894;2022-11-20T03:29:59;2.80;99.90
17385;DHT22;8810;48.680;8.894;2022-11-20T03:32:26;2.80;99.90
17385;DHT22;8810;48.680;8.894;2022-11-20T03:34:54;2.80;99.90
17385;DHT22;8810;48.680;8.894;2022-11-20T03:37:21;2.70;99.90
17385;DHT22;8810;48.680;8.894;2022-11-20T03:39:48;2.70;99.90
17385;DHT22;8810;48.680;8.894;2022-11-20T03:42:15;2.60;99.90
17385;DHT22;8810;48.680;8.894;2022-11-20T03:44:55;2.60;99.90
17385;DHT22;8810;48.680;8.894;2022-11-20T03:47:22;2.60;99.90
17385;DHT22;8810;48.680;8.894;2022-11-20T03:49:50;2.60;99.90
17385;DHT22;8810;48.680;8.894;2022-11-20T03:52:18;2.60;99.90
17385;DHT22;8810;48.680;8.894;2022-11-20T03:54:45;2.60;99.90
17385;DHT22;8810;48.680;8.894;2022-11-20T03:57:11;2.60;99.90
17385;DHT22;8810;48.680;8.894;2022-11-20T03:59:38;2.60;99.90
17385;DHT22;8810;48.680;8.894;2022-11-20T04:02:05;2.60;99.90
17385;DHT22;8810;48.680;8.894;2022-11-20T04:04:32;2.60;99.90
17385;DHT22;8810;48.680;8.894;2022-11-20T04:06:59;2.70;99.90
17385;DHT22;8810;48.680;8.894;2022-11-20T04:09:27;2.70;99.90
17385;DHT22;8810;48.680;8.894;2022-11-20T04:11:54;2.70;99.90
17385;DHT22;8810;48.680;8.894;2022-11-20T04:14:20;2.70;99.90
17385;DHT22;8810;48.680;8.894;2022-11-20T04:16:47;2.70;99.90
17385;DHT22;8810;48.680;8.894;2022-11-20T04:19:15;2.80;99.90
17385;DHT22;8810;48.680;8.894;2022-11-20T04:21:44;2.80;99.90
17385;DHT22;8810;48.680;8.894;2022-11-20T04:24:11;2.80;99.90
17385;DHT22;8810;48.680;8.894;2022-11-20T04:26:39;2.80;99.90
17385;DHT22;8810;48.680;8.894;2022-11-20T04:29:06;2.80;99.90
17385;DHT22;8810;48.680;8.894;2022-11-20T04:31:36;2.90;99.90
17385;DHT22;8810;48.680;8.894;2022-11-20T04:34:06;2.90;99.90
17385;DHT22;8810;48.680;8.894;2022-11-20T04:36:34;2.90;99.90
17385;DHT22;8810;48.680;8.894;2022-11-20T04:39:02;3.00;99.90
17385;DHT22;8810;48.680;8.894;2022-11-20T04:41:32;3.10;99.90
17385;DHT22;8810;48.680;8.894;2022-11-20T04:44:01;3.20;99.90
17385;DHT22;8810;48.680;8.894;2022-11-20T04:46:30;3.30;99.90
17385;DHT22;8810;48.680;8.894;2022-11-20T04:48:58;3.40;99.90
17385;DHT22;8810;48.680;8.894;2022-11-20T04:51:25;3.50;99.90
17385;DHT22;8810;48.680;8.894;2022-11-20T04:53:52;3.50;99.90
17385;DHT22;8810;48.680;8.894;2022-11-20T04:56:19;3.50;99.90
17385;DHT22;8810;48.680;8.894;2022-11-20T04:58:45;3.60;99.90
17385;DHT22;8810;48.680;8.894;2022-11-20T05:01:15;3.70;99.90
17385;DHT22;8810;48.680;8.894;2022-11-20T05:03:44;3.80;99.90
17385;DHT22;8810;48.680;8.894;2022-11-20T05:06:12;3.80;99.90
17385;DHT22;8810;48.680;8.894;2022-11-20T05:08:39;3.90;99.90
17385;DHT22;8810;48.680;8.894;2022-11-20T05:11:08;3.90;99.90
17385;DHT22;8810;48.680;8.894;2022-11-20T05:13:36;3.90;99.90
17385;DHT22;8810;48.680;8.894;2022-11-20T05:16:04;4.00;99.90
17385;DHT22;8810;48.680;8.894;2022-11-20T05:18:33;4.00;99.90
17385;DHT22;8810;48.680;8.894;2022-11-20T05:21:00;4.00;99.90
17385;DHT22;8810;48.680;8.894;2022-11-20T05:23:28;4.00;99.90
17385;DHT22;8810;48.680;8.894;2022-11-20T05:25:56;4.00;99.90
17385;DHT22;8810;48.680;8.894;2022-11-20T05:28:24;4.00;99.90
17385;DHT22;8810;48.680;8.894;2022-11-20T05:30:51;4.00;99.90
17385;DHT22;8810;48.680;8.894;2022-11-20T05:33:18;4.00;99.90
17385;DHT22;8810;48.680;8.894;2022-11-20T05:35:46;4.00;99.90
17385;DHT22;8810;48.680;8.894;2022-11-20T05:38:14;4.00;99.90
17385;DHT22;8810;48.680;8.894;2022-11-20T05:40:40;4.10;99.90
17385;DHT22;8810;48.680;8.894;2022-11-20T05:43:08;4.00;99.90
17385;DHT22;8810;48.680;8.894;2022-11-20T05:45:35;4.00;99.90
17385;DHT22;8810;48.680;8.894;2022-11-20T05:48:02;4.10;99.90
17385;DHT22;8810;48.680;8.894;2022-11-20T05:50:29;4.10;99.90
17385;DHT22;8810;48.680;8.894;2022-11-20T05:52:59;4.10;99.90
17385;DHT22;8810;48.680;8.894;2022-11-20T05:55:26;4.20;99.90
17385;DHT22;8810;48.680;8.894;2022-11-20T05:57:53;4.20;99.90
17385;DHT22;8810;48.680;8.894;2022-11-20T06:00:20;4.30;99.90
17385;DHT22;8810;48.680;8.894;2022-11-20T06:02:47;4.40;99.90
17385;DHT22;8810;48.680;8.894;2022-11-20T06:05:14;4.40;99.90
17385;DHT22;8810;48.680;8.894;2022-11-20T06:07:41;4.50;99.90
17385;DHT22;8810;48.680;8.894;2022-11-20T06:10:10;4.60;99.90
17385;DHT22;8810;48.680;8.894;2022-11-20T06:12:37;4.70;99.90
17385;DHT22;8810;48.680;8.894;2022-11-20T06:15:05;4.70;99.90
17385;DHT22;8810;48.680;8.894;2022-11-20T06:17:32;4.70;99.90
17385;DHT22;8810;48.680;8.894;2022-11-20T06:19:59;4.80;99.90
17385;DHT22;8810;48.680;8.894;2022-11-20T06:22:26;4.90;99.90
17385;DHT22;8810;48.680;8.894;2022-11-20T06:24:52;4.90;99.90
17385;DHT22;8810;48.680;8.894;2022-11-20T06:27:21;4.90;99.90
17385;DHT22;8810;48.680;8.894;2022-11-20T06:29:47;5.00;99.90
17385;DHT22;8810;48.680;8.894;2022-11-20T06:32:14;5.00;99.90
17385;DHT22;8810;48.680;8.894;2022-11-20T06:34:41;5.00;99.90
17385;DHT22;8810;48.680;8.894;2022-11-20T06:37:08;5.00;99.90
17385;DHT22;8810;48.680;8.894;2022-11-20T06:39:34;5.00;99.90
17385;DHT22;8810;48.680;8.894;2022-11-20T06:42:01;5.00;99.90
17385;DHT22;8810;48.680;8.894;2022-11-20T06:44:29;5.00;99.90
17385;DHT22;8810;48.680;8.894;2022-11-20T06:46:56;5.00;99.90
17385;DHT22;8810;48.680;8.894;2022-11-20T06:49:23;4.90;99.90
17385;DHT22;8810;48.680;8.894;2022-11-20T06:51:50;5.00;99.90
17385;DHT22;8810;48.680;8.894;2022-11-20T06:54:17;4.90;99.90
17385;DHT22;8810;48.680;8.894;2022-11-20T06:56:46;5.00;99.90
17385;DHT22;8810;48.680;8.894;2022-11-20T06:59:13;5.00;99.90
17385;DHT22;8810;48.680;8.894;2022-11-20T07:01:41;5.00;99.90
17385;DHT22;8810;48.680;8.894;2022-11-20T07:04:08;4.90;99.90
17385;DHT22;8810;48.680;8.894;2022-11-20T07:06:35;4.90;99.90
17385;DHT22;8810;48.680;8.894;2022-11-20T07:09:01;4.90;99.90
17385;DHT22;8810;48.680;8.894;2022-11-20T07:11:28;5.00;99.90
17385;DHT22;8810;48.680;8.894;2022-11-20T07:13:56;5.00;99.90
17385;DHT22;8810;48.680;8.894;2022-11-20T07:16:23;5.00;99.90
17385;DHT22;8810;48.680;8.894;2022-11-20T07:18:51;5.10;99.90
17385;DHT22;8810;48.680;8.894;2022-11-20T07:21:18;5.00;99.90
17385;DHT22;8810;48.680;8.894;2022-11-20T07:23:45;5.10;99.90
17385;DHT22;8810;48.680;8.894;2022-11-20T07:26:12;5.10;99.90
17385;DHT22;8810;48.680;8.894;2022-11-20T07:28:38;5.10;99.90
17385;DHT22;8810;48.680;8.894;2022-11-20T07:31:06;5.10;99.90
17385;DHT22;8810;48.680;8.894;2022-11-20T07:33:33;5.10;99.90
17385;DHT22;8810;48.680;8.894;2022-11-20T07:36:01;5.10;99.90
17385;DHT22;8810;48.680;8.894;2022-11-20T07:38:28;5.20;99.90
17385;DHT22;8810;48.680;8.894;2022-11-20T07:40:55;5.20;99.90
17385;DHT22;8810;48.680;8.894;2022-11-20T07:43:23;5.20;99.90
17385;DHT22;8810;48.680;8.894;2022-11-20T07:45:50;5.20;99.90
17385;DHT22;8810;48.680;8.894;2022-11-20T07:48:17;5.30;99.90
17385;DHT22;8810;48.680;8.894;2022-11-20T07:50:44;5.30;99.90
17385;DHT22;8810;48.680;8.894;2022-11-20T07:53:12;5.30;99.90
17385;DHT22;8810;48.680;8.894;2022-11-20T07:55:39;5.30;99.90
17385;DHT22;8810;48.680;8.894;2022-11-20T07:58:06;5.30;99.90
17385;DHT22;8810;48.680;8.894;2022-11-20T08:00:33;5.40;99.90
17385;DHT22;8810;48.680;8.894;2022-11-20T08:03:03;5.40;99.90
17385;DHT22;8810;48.680;8.894;2022-11-20T08:05:29;5.40;99.90
17385;DHT22;8810;48.680;8.894;2022-11-20T08:07:56;5.50;99.90
17385;DHT22;8810;48.680;8.894;2022-11-20T08:10:24;5.50;99.90
17385;DHT22;8810;48.680;8.894;2022-11-20T08:12:52;5.50;99.90
17385;DHT22;8810;48.680;8.894;2022-11-20T08:15:39;5.50;99.90
17385;DHT22;8810;48.680;8.894;2022-11-20T08:18:07;5.50;99.90
17385;DHT22;8810;48.680;8.894;2022-11-20T08:20:35;5.50;99.90
17385;DHT22;8810;48.680;8.894;2022-11-20T08:23:04;5.50;99.90
17385;DHT22;8810;48.680;8.894;2022-11-20T08:25:34;5.50;99.90
17385;DHT22;8810;48.680;8.894;2022-11-20T08:28:02;5.50;99.90
17385;DHT22;8810;48.680;8.894;2022-11-20T08:30:29;5.50;99.90
17385;DHT22;8810;48.680;8.894;2022-11-20T08:33:01;5.50;99.90
17385;DHT22;8810;48.680;8.894;2022-11-20T08:35:28;5.50;99.90
17385;DHT22;8810;48.680;8.894;2022-11-20T08:37:55;5.60;99.90
17385;DHT22;8810;48.680;8.894;2022-11-20T08:40:21;5.60;99.90
17385;DHT22;8810;48.680;8.894;2022-11-20T08:42:50;5.70;99.90
17385;DHT22;8810;48.680;8.894;2022-11-20T08:45:18;5.80;99.90
17385;DHT22;8810;48.680;8.894;2022-11-20T08:47:46;5.90;99.90
17385;DHT22;8810;48.680;8.894;2022-11-20T08:50:14;5.90;99.90
17385;DHT22;8810;48.680;8.894;2022-11-20T08:52:41;6.00;99.90
17385;DHT22;8810;48.680;8.894;2022-11-20T08:55:09;6.00;99.90
17385;DHT22;8810;48.680;8.894;2022-11-20T08:57:36;6.00;99.90
17385;DHT22;8810;48.680;8.894;2022-11-20T09:00:06;6.10;99.90
17385;DHT22;8810;48.680;8.894;2022-11-20T09:02:34;6.00;99.90
17385;DHT22;8810;48.680;8.894;2022-11-20T09:05:01;6.00;99.90
17385;DHT22;8810;48.680;8.894;2022-11-20T09:07:28;6.00;99.90
17385;DHT22;8810;48.680;8.894;2022-11-20T09:09:55;5.90;99.90
17385;DHT22;8810;48.680;8.894;2022-11-20T09:12:22;5.90;99.90
17385;DHT22;8810;48.680;8.894;2022-11-20T09:14:49;5.90;99.90
17385;DHT22;8810;48.680;8.894;2022-11-20T09:17:17;5.90;99.90
17385;DHT22;8810;48.680;8.894;2022-11-20T09:19:45;5.90;99.90
17385;DHT22;8810;48.680;8.894;2022-11-20T09:22:13;5.90;99.90
17385;DHT22;8810;48.680;8.894;2022-11-20T09:24:40;5.90;99.90
17385;DHT22;8810;48.680;8.894;2022-11-20T09:27:08;5.90;99.90
17385;DHT22;8810;48.680;8.894;2022-11-20T09:29:35;5.80;99.90
17385;DHT22;8810;48.680;8.894;2022-11-20T09:32:02;5.70;99.90
17385;DHT22;8810;48.680;8.894;2022-11-20T09:34:30;5.80;99.90
17385;DHT22;8810;48.680;8.894;2022-11-20T09:36:56;5.80;99.90
17385;DHT22;8810;48.680;8.894;2022-11-20T09:39:23;5.80;99.90
17385;DHT22;8810;48.680;8.894;2022-11-20T09:42:14;5.80;99.90
17385;DHT22;8810;48.680;8.894;2022-11-20T09:45:02;5.70;99.90
17385;DHT22;8810;48.680;8.894;2022-11-20T09:47:42;5.70;99.90
17385;DHT22;8810;48.680;8.894;2022-11-20T09:50:23;5.70;99.90
17385;DHT22;8810;48.680;8.894;2022-11-20T09:53:01;5.70;99.90
17385;DHT22;8810;48.680;8.894;2022-11-20T09:55:31;5.70;99.90
17385;DHT22;8810;48.680;8.894;2022-11-20T09:57:59;5.80;99.90
17385;DHT22;8810;48.680;8.894;2022-11-20T10:00:27;5.80;99.90
17385;DHT22;8810;48.680;8.894;2022-11-20T10:02:58;5.80;99.90
17385;DHT22;8810;48.680;8.894;2022-11-20T10:05:31;5.80;99.90
17385;DHT22;8810;48.680;8.894;2022-11-20T10:08:07;5.80;99.90
17385;DHT22;8810;48.680;8.894;2022-11-20T10:10:42;5.80;99.90
17385;DHT22;8810;48.680;8.894;2022-11-20T10:13:20;5.90;99.90
17385;DHT22;8810;48.680;8.894;2022-11-20T10:15:57;5.90;99.90
17385;DHT22;8810;48.680;8.894;2022-11-20T10:18:37;5.90;99.90
17385;DHT22;8810;48.680;8.894;2022-11-20T10:21:14;5.90;99.90
17385;DHT22;8810;48.680;8.894;2022-11-20T10:26:44;5.90;99.90
17385;DHT22;8810;48.680;8.894;2022-11-20T10:29:17;5.90;99.90
17385;DHT22;8810;48.680;8.894;2022-11-20T10:31:47;5.90;99.90
17385;DHT22;8810;48.680;8.894;2022-11-20T10:34:20;5.90;99.90
17385;DHT22;8810;48.680;8.894;2022-11-20T10:36:54;5.90;99.90
17385;DHT22;8810;48.680;8.894;2022-11-20T10:39:28;5.90;99.90
17385;DHT22;8810;48.680;8.894;2022-11-20T10:41:58;5.90;99.90
17385;DHT22;8810;48.680;8.894;2022-11-20T10:44:27;5.90;99.90
17385;DHT22;8810;48.680;8.894;2022-11-20T10:47:14;6.00;99.90
17385;DHT22;8810;48.680;8.894;2022-11-20T10:49:42;6.00;99.90
17385;DHT22;8810;48.680;8.894;2022-11-20T10:52:21;6.10;99.90
17385;DHT22;8810;48.680;8.894;2022-11-20T10:54:56;6.20;99.90
17385;DHT22;8810;48.680;8.894;2022-11-20T10:57:35;6.30;99.90
17385;DHT22;8810;48.680;8.894;2022-11-20T11:00:10;6.30;99.90
17385;DHT22;8810;48.680;8.894;2022-11-20T11:02:41;6.40;99.90
17385;DHT22;8810;48.680;8.894;2022-11-20T11:05:33;6.50;99.90
17385;DHT22;8810;48.680;8.894;2022-11-20T11:08:07;6.50;99.90
17385;DHT22;8810;48.680;8.894;2022-11-20T11:10:42;6.50;99.90
17385;DHT22;8810;48.680;8.894;2022-11-20T11:13:20;6.60;99.90
17385;DHT22;8810;48.680;8.894;2022-11-20T11:15:47;6.60;99.90
17385;DHT22;8810;48.680;8.894;2022-11-20T11:18:23;6.60;99.90
17385;DHT22;8810;48.680;8.894;2022-11-20T11:20:51;6.60;99.90
17385;DHT22;8810;48.680;8.894;2022-11-20T11:23:30;6.70;99.90
17385;DHT22;8810;48.680;8.894;2022-11-20T11:25:59;7.00;99.90
17385;DHT22;8810;48.680;8.894;2022-11-20T11:28:26;7.40;99.90
17385;DHT22;8810;48.680;8.894;2022-11-20T11:30:54;7.60;99.90
17385;DHT22;8810;48.680;8.894;2022-11-20T11:33:22;7.80;99.90
17385;DHT22;8810;48.680;8.894;2022-11-20T11:35:51;8.10;99.90
17385;DHT22;8810;48.680;8.894;2022-11-20T11:38:23;8.60;99.90
17385;DHT22;8810;48.680;8.894;2022-11-20T11:40:55;9.10;99.90
17385;DHT22;8810;48.680;8.894;2022-11-20T11:43:24;9.30;99.90
17385;DHT22;8810;48.680;8.894;2022-11-20T11:46:35;9.70;99.90
17385;DHT22;8810;48.680;8.894;2022-11-20T11:49:15;9.80;99.90
17385;DHT22;8810;48.680;8.894;2022-11-20T11:51:56;10.00;99.90
17385;DHT22;8810;48.680;8.894;2022-11-20T11:54:25;10.10;99.90
17385;DHT22;8810;48.680;8.894;2022-11-20T11:57:00;10.30;99.90
17385;DHT22;8810;48.680;8.894;2022-11-20T11:59:32;10.60;99.90
17385;DHT22;8810;48.680;8.894;2022-11-20T12:02:15;10.80;99.90
17385;DHT22;8810;48.680;8.894;2022-11-20T12:04:50;11.00;99.90
17385;DHT22;8810;48.680;8.894;2022-11-20T12:07:36;11.00;99.90
17385;DHT22;8810;48.680;8.894;2022-11-20T12:10:08;11.00;99.90
17385;DHT22;8810;48.680;8.894;2022-11-20T12:12:43;10.60;99.90
17385;DHT22;8810;48.680;8.894;2022-11-20T12:15:12;10.20;99.90
17385;DHT22;8810;48.680;8.894;2022-11-20T12:17:42;9.80;99.90
17385;DHT22;8810;48.680;8.894;2022-11-20T12:20:13;9.70;99.90
17385;DHT22;8810;48.680;8.894;2022-11-20T12:22:45;9.60;99.90
17385;DHT22;8810;48.680;8.894;2022-11-20T12:25:19;9.70;99.90
17385;DHT22;8810;48.680;8.894;2022-11-20T12:28:22;10.00;99.90
17385;DHT22;8810;48.680;8.894;2022-11-20T12:31:03;10.30;99.90
17385;DHT22;8810;48.680;8.894;2022-11-20T12:33:48;10.00;99.90
17385;DHT22;8810;48.680;8.894;2022-11-20T12:36:28;10.20;99.90
17385;DHT22;8810;48.680;8.894;2022-11-20T12:39:13;10.10;99.90
17385;DHT22;8810;48.680;8.894;2022-11-20T12:41:51;10.20;99.90
17385;DHT22;8810;48.680;8.894;2022-11-20T12:44:52;10.20;99.90
17385;DHT22;8810;48.680;8.894;2022-11-20T12:47:47;10.20;99.90
17385;DHT22;8810;48.680;8.894;2022-11-20T12:50:22;10.10;99.90
17385;DHT22;8810;48.680;8.894;2022-11-20T12:52:57;10.30;99.90
17385;DHT22;8810;48.680;8.894;2022-11-20T12:55:42;10.50;99.90
17385;DHT22;8810;48.680;8.894;2022-11-20T12:58:16;10.60;99.90
17385;DHT22;8810;48.680;8.894;2022-11-20T13:00:56;10.70;99.90
17385;DHT22;8810;48.680;8.894;2022-11-20T13:03:37;10.70;99.90
17385;DHT22;8810;48.680;8.894;2022-11-20T13:06:18;10.90;99.90
17385;DHT22;8810;48.680;8.894;2022-11-20T13:08:49;10.90;99.90
17385;DHT22;8810;48.680;8.894;2022-11-20T13:11:21;10.60;99.90
17385;DHT22;8810;48.680;8.894;2022-11-20T13:14:08;10.10;99.90
17385;DHT22;8810;48.680;8.894;2022-11-20T13:16:44;9.60;99.90
17385;DHT22;8810;48.680;8.894;2022-11-20T13:19:15;9.30;99.90
17385;DHT22;8810;48.680;8.894;2022-11-20T13:21:44;9.00;99.90
17385;DHT22;8810;48.680;8.894;2022-11-20T13:24:25;8.70;99.90
17385;DHT22;8810;48.680;8.894;2022-11-20T13:27:04;8.50;99.90
17385;DHT22;8810;48.680;8.894;2022-11-20T13:29:32;8.30;99.90
17385;DHT22;8810;48.680;8.894;2022-11-20T13:32:06;8.30;99.90
17385;DHT22;8810;48.680;8.894;2022-11-20T13:34:34;8.30;99.90
17385;DHT22;8810;48.680;8.894;2022-11-20T13:37:01;8.20;99.90
17385;DHT22;8810;48.680;8.894;2022-11-20T13:39:31;8.10;99.90
17385;DHT22;8810;48.680;8.894;2022-11-20T13:41:59;8.00;99.90
17385;DHT22;8810;48.680;8.894;2022-11-20T13:44:30;7.80;99.90
17385;DHT22;8810;48.680;8.894;2022-11-20T13:47:00;7.90;99.90
17385;DHT22;8810;48.680;8.894;2022-11-20T13:49:32;7.80;99.90
17385;DHT22;8810;48.680;8.894;2022-11-20T13:52:27;7.90;99.90
17385;DHT22;8810;48.680;8.894;2022-11-20T13:55:16;7.80;99.90
17385;DHT22;8810;48.680;8.894;2022-11-20T13:58:05;7.80;99.90
17385;DHT22;8810;48.680;8.894;2022-11-20T14:00:43;7.80;99.90
17385;DHT22;8810;48.680;8.894;2022-11-20T14:03:17;7.80;99.90
17385;DHT22;8810;48.680;8.894;2022-11-20T14:05:50;7.80;99.90
17385;DHT22;8810;48.680;8.894;2022-11-20T14:08:24;7.70;99.90
17385;DHT22;8810;48.680;8.894;2022-11-20T14:11:03;7.70;99.90
17385;DHT22;8810;48.680;8.894;2022-11-20T14:13:30;7.70;99.90
17385;DHT22;8810;48.680;8.894;2022-11-20T14:15:58;7.60;99.90
17385;DHT22;8810;48.680;8.894;2022-11-20T14:18:26;7.50;99.90
17385;DHT22;8810;48.680;8.894;2022-11-20T14:20:55;7.50;99.90
17385;DHT22;8810;48.680;8.894;2022-11-20T14:23:26;7.50;99.90
17385;DHT22;8810;48.680;8.894;2022-11-20T14:25:53;7.50;99.90
17385;DHT22;8810;48.680;8.894;2022-11-20T14:28:25;7.40;99.90
17385;DHT22;8810;48.680;8.894;2022-11-20T14:30:55;7.40;99.90
17385;DHT22;8810;48.680;8.894;2022-11-20T14:33:23;7.30;99.90
17385;DHT22;8810;48.680;8.894;2022-11-20T14:35:53;7.30;99.90
17385;DHT22;8810;48.680;8.894;2022-11-20T14:38:26;7.30;99.90
17385;DHT22;8810;48.680;8.894;2022-11-20T14:40:53;7.30;99.90
17385;DHT22;8810;48.680;8.894;2022-11-20T14:43:24;7.20;99.90
17385;DHT22;8810;48.680;8.894;2022-11-20T14:46:00;7.20;99.90
17385;DHT22;8810;48.680;8.894;2022-11-20T14:48:30;7.20;99.90
17385;DHT22;8810;48.680;8.894;2022-11-20T14:50:58;7.10;99.90
17385;DHT22;8810;48.680;8.894;2022-11-20T14:53:26;7.20;99.90
17385;DHT22;8810;48.680;8.894;2022-11-20T14:55:57;7.10;99.90
17385;DHT22;8810;48.680;8.894;2022-11-20T14:58:27;7.00;99.90
17385;DHT22;8810;48.680;8.894;2022-11-20T15:00:56;7.00;99.90
17385;DHT22;8810;48.680;8.894;2022-11-20T15:03:30;7.00;99.90
17385;DHT22;8810;48.680;8.894;2022-11-20T15:05:56;7.00;99.90
17385;DHT22;8810;48.680;8.894;2022-11-20T15:08:23;6.90;99.90
17385;DHT22;8810;48.680;8.894;2022-11-20T15:10:51;6.90;99.90
17385;DHT22;8810;48.680;8.894;2022-11-20T15:13:25;6.80;99.90
17385;DHT22;8810;48.680;8.894;2022-11-20T15:15:54;6.80;99.90
17385;DHT22;8810;48.680;8.894;2022-11-20T15:18:23;6.70;99.90
17385;DHT22;8810;48.680;8.894;2022-11-20T15:20:50;6.60;99.90
17385;DHT22;8810;48.680;8.894;2022-11-20T15:23:18;6.60;99.90
17385;DHT22;8810;48.680;8.894;2022-11-20T15:25:46;6.50;99.90
17385;DHT22;8810;48.680;8.894;2022-11-20T15:28:17;6.50;99.90
17385;DHT22;8810;48.680;8.894;2022-11-20T15:30:45;6.50;99.90
17385;DHT22;8810;48.680;8.894;2022-11-20T15:33:13;6.50;99.90
17385;DHT22;8810;48.680;8.894;2022-11-20T15:35:40;6.40;99.90
17385;DHT22;8810;48.680;8.894;2022-11-20T15:38:07;6.40;99.90
17385;DHT22;8810;48.680;8.894;2022-11-20T15:40:34;6.40;99.90
17385;DHT22;8810;48.680;8.894;2022-11-20T15:43:01;6.30;99.90
17385;DHT22;8810;48.680;8.894;2022-11-20T15:45:36;6.30;99.90
17385;DHT22;8810;48.680;8.894;2022-11-20T15:48:05;6.30;99.90
17385;DHT22;8810;48.680;8.894;2022-11-20T15:50:37;6.20;99.90
17385;DHT22;8810;48.680;8.894;2022-11-20T15:53:04;6.20;99.90
17385;DHT22;8810;48.680;8.894;2022-11-20T15:55:31;6.20;99.90
17385;DHT22;8810;48.680;8.894;2022-11-20T15:57:58;6.20;99.90
17385;DHT22;8810;48.680;8.894;2022-11-20T16:00:25;6.10;99.90
17385;DHT22;8810;48.680;8.894;2022-11-20T16:02:54;6.10;99.90
17385;DHT22;8810;48.680;8.894;2022-11-20T16:05:20;6.10;99.90
17385;DHT22;8810;48.680;8.894;2022-11-20T16:07:50;6.00;99.90
17385;DHT22;8810;48.680;8.894;2022-11-20T16:10:17;6.00;99.90
17385;DHT22;8810;48.680;8.894;2022-11-20T16:12:43;6.00;99.90
17385;DHT22;8810;48.680;8.894;2022-11-20T16:15:28;6.00;99.90
17385;DHT22;8810;48.680;8.894;2022-11-20T16:18:16;6.00;99.90
17385;DHT22;8810;48.680;8.894;2022-11-20T16:20:44;6.00;99.90
17385;DHT22;8810;48.680;8.894;2022-11-20T16:23:11;6.00;99.90
17385;DHT22;8810;48.680;8.894;2022-11-20T16:25:38;6.00;99.90